PWSweather.com
Personal Weather Stations
Station Observations
ZYBORSKI
Fromes HillGB hr8 1

Fromes HillGB hr8 1

Lat: 52.1172558, Lon: -2.4749163

Elevation: 0

Station Type: FineOffset

High Low Average
Temperature 82.0°F27.8°F 59.2°F15.1°F 69.7°F20.9°F
Dew Point 72.5°F22.5°F 58.9°F14.9°F 65.4°F18.6°F
Winds 3.1 mph NE5.0 mph NE Calm Calm 0.4 mph 0.6 mph
Wind Gusts 15.9 mph25.6 mph -- 6.3 mph10.1 mph
Humidity 99% 62% 87%
Pressure 30.37 in1028.40 in 30.28 in1025.40 in -
Precipitation 0.00 in0.00 in - -
Hour Temp Dew Point Humidity Winds Wind Gusts Pressure Precip Precip Rate Daily Precip Total
12:00 AM 65.3°F18.5°C 65.0°F18.3°C 99% 0.7 mph NE1.1 kmh NE 8.3 mph13.4 kmh 30.37 in1028.4 mb 0.00 in0.0 mm 0.00 in/hr0.0 mm/hr 0.00 in0.0 mm
12:15 AM 65.1°F18.4°C 64.9°F18.3°C 99% 2.2 mph NE3.5 kmh NE 8.3 mph13.4 kmh 30.37 in1028.4 mb 0.00 in0.0 mm 0.00 in/hr0.0 mm/hr 0.00 in0.0 mm
12:30 AM 64.6°F18.1°C 64.3°F17.9°C 99% Calm Calm 10.7 mph17.2 kmh 30.36 in1028.1 mb 0.00 in0.0 mm 0.00 in/hr0.0 mm/hr 0.00 in0.0 mm
12:45 AM 63.9°F17.7°C 63.6°F17.6°C 99% Calm Calm 6.0 mph9.7 kmh 30.36 in1028.1 mb 0.00 in0.0 mm 0.00 in/hr0.0 mm/hr 0.00 in0.0 mm
01:00 AM 63.1°F17.3°C 62.9°F17.2°C 99% Calm Calm 5.4 mph8.7 kmh 30.36 in1028.1 mb 0.00 in0.0 mm 0.00 in/hr0.0 mm/hr 0.00 in0.0 mm
01:15 AM 63.0°F17.2°C 62.7°F17.1°C 99% 2.2 mph NE3.5 kmh NE 9.2 mph14.8 kmh 30.36 in1028.1 mb 0.00 in0.0 mm 0.00 in/hr0.0 mm/hr 0.00 in0.0 mm
01:30 AM 62.8°F17.1°C 62.5°F16.9°C 99% 0.7 mph NE1.1 kmh NE 6.9 mph11.1 kmh 30.35 in1027.8 mb 0.00 in0.0 mm 0.00 in/hr0.0 mm/hr 0.00 in0.0 mm
01:45 AM 62.4°F16.9°C 62.2°F16.8°C 99% Calm Calm 4.5 mph7.2 kmh 30.35 in1027.8 mb 0.00 in0.0 mm 0.00 in/hr0.0 mm/hr 0.00 in0.0 mm
02:00 AM 62.1°F16.7°C 61.8°F16.6°C 99% Calm Calm 6.9 mph11.1 kmh 30.35 in1027.8 mb 0.00 in0.0 mm 0.00 in/hr0.0 mm/hr 0.00 in0.0 mm
02:15 AM 61.7°F16.5°C 61.4°F16.3°C 99% Calm Calm 6.0 mph9.7 kmh 30.35 in1027.8 mb 0.00 in0.0 mm 0.00 in/hr0.0 mm/hr 0.00 in0.0 mm
02:30 AM 61.5°F16.4°C 61.3°F16.3°C 99% Calm Calm 5.4 mph8.7 kmh 30.35 in1027.8 mb 0.00 in0.0 mm 0.00 in/hr0.0 mm/hr 0.00 in0.0 mm
02:45 AM 61.2°F16.2°C 60.9°F16.1°C 99% Calm Calm 3.1 mph5.0 kmh 30.35 in1027.8 mb 0.00 in0.0 mm 0.00 in/hr0.0 mm/hr 0.00 in0.0 mm
03:00 AM 61.0°F16.1°C 60.7°F15.9°C 99% Calm Calm 1.6 mph2.6 kmh 30.36 in1028.1 mb 0.00 in0.0 mm 0.00 in/hr0.0 mm/hr 0.00 in0.0 mm
03:15 AM 60.4°F15.8°C 60.2°F15.7°C 99% Calm Calm -- 30.35 in1027.8 mb 0.00 in0.0 mm 0.00 in/hr0.0 mm/hr 0.00 in0.0 mm
03:30 AM 60.3°F15.7°C 60.0°F15.6°C 99% Calm Calm -- 30.35 in1027.8 mb 0.00 in0.0 mm 0.00 in/hr0.0 mm/hr 0.00 in0.0 mm
03:45 AM 59.9°F15.5°C 59.6°F15.3°C 99% Calm Calm 2.2 mph3.5 kmh 30.35 in1027.8 mb 0.00 in0.0 mm 0.00 in/hr0.0 mm/hr 0.00 in0.0 mm
04:00 AM 59.9°F15.5°C 59.6°F15.3°C 99% Calm Calm 3.1 mph5.0 kmh 30.35 in1027.8 mb 0.00 in0.0 mm 0.00 in/hr0.0 mm/hr 0.00 in0.0 mm
04:15 AM 59.5°F15.3°C 59.3°F15.2°C 99% Calm Calm -- 30.35 in1027.8 mb 0.00 in0.0 mm 0.00 in/hr0.0 mm/hr 0.00 in0.0 mm
04:30 AM 59.4°F15.2°C 59.1°F15.1°C 99% Calm Calm 0.7 mph1.1 kmh 30.35 in1027.8 mb 0.00 in0.0 mm 0.00 in/hr0.0 mm/hr 0.00 in0.0 mm
04:45 AM 59.4°F15.2°C 59.1°F15.1°C 99% Calm Calm 0.7 mph1.1 kmh 30.35 in1027.8 mb 0.00 in0.0 mm 0.00 in/hr0.0 mm/hr 0.00 in0.0 mm
05:00 AM 59.2°F15.1°C 58.9°F14.9°C 99% Calm Calm 0.7 mph1.1 kmh 30.35 in1027.8 mb 0.00 in0.0 mm 0.00 in/hr0.0 mm/hr 0.00 in0.0 mm
05:15 AM 59.9°F15.5°C 59.6°F15.3°C 99% Calm Calm 1.6 mph2.6 kmh 30.35 in1027.8 mb 0.00 in0.0 mm 0.00 in/hr0.0 mm/hr 0.00 in0.0 mm
05:30 AM 60.3°F15.7°C 60.0°F15.6°C 99% Calm Calm 3.1 mph5.0 kmh 30.35 in1027.8 mb 0.00 in0.0 mm 0.00 in/hr0.0 mm/hr 0.00 in0.0 mm
05:45 AM 60.4°F15.8°C 60.2°F15.7°C 99% Calm Calm 1.6 mph2.6 kmh 30.35 in1027.8 mb 0.00 in0.0 mm 0.00 in/hr0.0 mm/hr 0.00 in0.0 mm
06:00 AM 60.1°F15.6°C 59.8°F15.4°C 99% Calm Calm 5.4 mph8.7 kmh 30.35 in1027.8 mb 0.00 in0.0 mm 0.00 in/hr0.0 mm/hr 0.00 in0.0 mm
06:15 AM 59.5°F15.3°C 59.3°F15.2°C 99% Calm Calm 6.0 mph9.7 kmh 30.36 in1028.1 mb 0.00 in0.0 mm 0.00 in/hr0.0 mm/hr 0.00 in0.0 mm
06:30 AM 59.7°F15.4°C 59.5°F15.3°C 99% 2.2 mph NE3.5 kmh NE 8.3 mph13.4 kmh 30.36 in1028.1 mb 0.00 in0.0 mm 0.00 in/hr0.0 mm/hr 0.00 in0.0 mm
06:45 AM 59.9°F15.5°C 59.6°F15.3°C 99% Calm Calm 3.8 mph6.1 kmh 30.36 in1028.1 mb 0.00 in0.0 mm 0.00 in/hr0.0 mm/hr 0.00 in0.0 mm
07:00 AM 60.6°F15.9°C 60.4°F15.8°C 99% Calm Calm 4.5 mph7.2 kmh 30.37 in1028.4 mb 0.00 in0.0 mm 0.00 in/hr0.0 mm/hr 0.00 in0.0 mm
07:15 AM 60.8°F16.0°C 60.5°F15.8°C 99% 3.1 mph NE5.0 kmh NE 9.8 mph15.8 kmh 30.36 in1028.1 mb 0.00 in0.0 mm 0.00 in/hr0.0 mm/hr 0.00 in0.0 mm
07:30 AM 61.0°F16.1°C 60.7°F15.9°C 99% 3.1 mph NE5.0 kmh NE 9.8 mph15.8 kmh 30.37 in1028.4 mb 0.00 in0.0 mm 0.00 in/hr0.0 mm/hr 0.00 in0.0 mm
07:45 AM 61.2°F16.2°C 60.9°F16.1°C 99% 0.7 mph NE1.1 kmh NE 9.8 mph15.8 kmh 30.35 in1027.8 mb 0.00 in0.0 mm 0.00 in/hr0.0 mm/hr 0.00 in0.0 mm
08:00 AM 62.6°F17.0°C 62.3°F16.8°C 99% 3.1 mph NE5.0 kmh NE 9.2 mph14.8 kmh 30.34 in1027.4 mb 0.00 in0.0 mm 0.00 in/hr0.0 mm/hr 0.00 in0.0 mm
08:15 AM 64.0°F17.8°C 63.8°F17.7°C 99% Calm Calm 7.6 mph12.2 kmh 30.33 in1027.1 mb 0.00 in0.0 mm 0.00 in/hr0.0 mm/hr 0.00 in0.0 mm
08:30 AM 64.6°F18.1°C 64.3°F17.9°C 99% Calm Calm 10.7 mph17.2 kmh 30.33 in1027.1 mb 0.00 in0.0 mm 0.00 in/hr0.0 mm/hr 0.00 in0.0 mm
08:45 AM 67.1°F19.5°C 66.8°F19.3°C 99% Calm Calm 5.4 mph8.7 kmh 30.33 in1027.1 mb 0.00 in0.0 mm 0.00 in/hr0.0 mm/hr 0.00 in0.0 mm
09:00 AM 65.5°F18.6°C 65.2°F18.4°C 99% 3.1 mph NE5.0 kmh NE 9.8 mph15.8 kmh 30.34 in1027.4 mb 0.00 in0.0 mm 0.00 in/hr0.0 mm/hr 0.00 in0.0 mm
09:15 AM 68.4°F20.2°C 68.1°F20.1°C 99% 1.6 mph NE2.6 kmh NE 10.7 mph17.2 kmh 30.33 in1027.1 mb 0.00 in0.0 mm 0.00 in/hr0.0 mm/hr 0.00 in0.0 mm
09:30 AM 69.1°F20.6°C 68.8°F20.4°C 99% Calm Calm 9.8 mph15.8 kmh 30.33 in1027.1 mb 0.00 in0.0 mm 0.00 in/hr0.0 mm/hr 0.00 in0.0 mm
09:45 AM 69.3°F20.7°C 69.0°F20.6°C 99% Calm Calm 11.4 mph18.3 kmh 30.33 in1027.1 mb 0.00 in0.0 mm 0.00 in/hr0.0 mm/hr 0.00 in0.0 mm
10:00 AM 70.2°F21.2°C 69.9°F21.1°C 99% 0.7 mph NE1.1 kmh NE 9.2 mph14.8 kmh 30.34 in1027.4 mb 0.00 in0.0 mm 0.00 in/hr0.0 mm/hr 0.00 in0.0 mm
10:15 AM 69.8°F21.0°C 69.5°F20.8°C 99% 1.6 mph NE2.6 kmh NE 9.8 mph15.8 kmh 30.34 in1027.4 mb 0.00 in0.0 mm 0.00 in/hr0.0 mm/hr 0.00 in0.0 mm
10:30 AM 70.9°F21.6°C 70.3°F21.3°C 98% 1.6 mph NE2.6 kmh NE 8.3 mph13.4 kmh 30.34 in1027.4 mb 0.00 in0.0 mm 0.00 in/hr0.0 mm/hr 0.00 in0.0 mm
10:45 AM 71.4°F21.9°C 70.6°F21.4°C 97% 0.7 mph NE1.1 kmh NE 9.2 mph14.8 kmh 30.34 in1027.4 mb 0.00 in0.0 mm 0.00 in/hr0.0 mm/hr 0.00 in0.0 mm
11:00 AM 72.5°F22.5°C 71.9°F22.2°C 98% 0.7 mph NE1.1 kmh NE 9.2 mph14.8 kmh 30.34 in1027.4 mb 0.00 in0.0 mm 0.00 in/hr0.0 mm/hr 0.00 in0.0 mm
11:15 AM 72.7°F22.6°C 71.5°F21.9°C 96% Calm Calm 12.1 mph19.5 kmh 30.34 in1027.4 mb 0.00 in0.0 mm 0.00 in/hr0.0 mm/hr 0.00 in0.0 mm
11:30 AM 73.4°F23.0°C 71.9°F22.2°C 95% Calm Calm 12.1 mph19.5 kmh 30.34 in1027.4 mb 0.00 in0.0 mm 0.00 in/hr0.0 mm/hr 0.00 in0.0 mm
11:45 AM 74.1°F23.4°C 71.4°F21.9°C 91% 2.2 mph NE3.5 kmh NE 12.1 mph19.5 kmh 30.34 in1027.4 mb 0.00 in0.0 mm 0.00 in/hr0.0 mm/hr 0.00 in0.0 mm
12:00 PM 74.7°F23.7°C 71.9°F22.2°C 91% 1.6 mph NE2.6 kmh NE 9.8 mph15.8 kmh 30.34 in1027.4 mb 0.00 in0.0 mm 0.00 in/hr0.0 mm/hr 0.00 in0.0 mm
12:15 PM 75.6°F24.2°C 71.8°F22.1°C 88% 2.2 mph NE3.5 kmh NE 9.8 mph15.8 kmh 30.34 in1027.4 mb 0.00 in0.0 mm 0.00 in/hr0.0 mm/hr 0.00 in0.0 mm
12:30 PM 77.0°F25.0°C 71.8°F22.1°C 84% Calm Calm 9.2 mph14.8 kmh 30.33 in1027.1 mb 0.00 in0.0 mm 0.00 in/hr0.0 mm/hr 0.00 in0.0 mm
12:45 PM 77.0°F25.0°C 72.5°F22.5°C 86% Calm Calm 9.8 mph15.8 kmh 30.33 in1027.1 mb 0.00 in0.0 mm 0.00 in/hr0.0 mm/hr 0.00 in0.0 mm
01:00 PM 76.5°F24.7°C 71.3°F21.8°C 84% Calm Calm 12.1 mph19.5 kmh 30.32 in1026.8 mb 0.00 in0.0 mm 0.00 in/hr0.0 mm/hr 0.00 in0.0 mm
01:15 PM 78.4°F25.8°C 71.1°F21.7°C 78% 0.7 mph NE1.1 kmh NE 10.7 mph17.2 kmh 30.32 in1026.8 mb 0.00 in0.0 mm 0.00 in/hr0.0 mm/hr 0.00 in0.0 mm
01:30 PM 77.5°F25.3°C 72.0°F22.2°C 83% Calm Calm 6.9 mph11.1 kmh 30.32 in1026.8 mb 0.00 in0.0 mm 0.00 in/hr0.0 mm/hr 0.00 in0.0 mm
01:45 PM 78.3°F25.7°C 70.9°F21.6°C 78% 0.7 mph NE1.1 kmh NE 9.8 mph15.8 kmh 30.32 in1026.8 mb 0.00 in0.0 mm 0.00 in/hr0.0 mm/hr 0.00 in0.0 mm
02:00 PM 78.3°F25.7°C 70.1°F21.2°C 76% Calm Calm 9.8 mph15.8 kmh 30.32 in1026.8 mb 0.00 in0.0 mm 0.00 in/hr0.0 mm/hr 0.00 in0.0 mm
02:15 PM 79.3°F26.3°C 71.9°F22.2°C 78% Calm Calm 9.8 mph15.8 kmh 30.31 in1026.4 mb 0.00 in0.0 mm 0.00 in/hr0.0 mm/hr 0.00 in0.0 mm
02:30 PM 80.4°F26.9°C 70.6°F21.4°C 72% Calm Calm 6.0 mph9.7 kmh 30.31 in1026.4 mb 0.00 in0.0 mm 0.00 in/hr0.0 mm/hr 0.00 in0.0 mm
02:45 PM 80.6°F27.0°C 70.0°F21.1°C 70% Calm Calm 6.0 mph9.7 kmh 30.31 in1026.4 mb 0.00 in0.0 mm 0.00 in/hr0.0 mm/hr 0.00 in0.0 mm
03:00 PM 81.0°F27.2°C 70.3°F21.3°C 70% Calm Calm 2.2 mph3.5 kmh 30.31 in1026.4 mb 0.00 in0.0 mm 0.00 in/hr0.0 mm/hr 0.00 in0.0 mm
03:15 PM 80.2°F26.8°C 70.0°F21.1°C 71% Calm Calm 5.4 mph8.7 kmh 30.31 in1026.4 mb 0.00 in0.0 mm 0.00 in/hr0.0 mm/hr 0.00 in0.0 mm
03:30 PM 80.8°F27.1°C 69.7°F20.9°C 69% Calm Calm 7.6 mph12.2 kmh 30.30 in1026.1 mb 0.00 in0.0 mm 0.00 in/hr0.0 mm/hr 0.00 in0.0 mm
03:45 PM 81.3°F27.4°C 69.4°F20.8°C 67% Calm Calm 7.6 mph12.2 kmh 30.31 in1026.4 mb 0.00 in0.0 mm 0.00 in/hr0.0 mm/hr 0.00 in0.0 mm
04:00 PM 82.0°F27.8°C 68.7°F20.4°C 64% 0.7 mph NNE1.1 kmh NNE 4.5 mph7.2 kmh 30.29 in1025.7 mb 0.00 in0.0 mm 0.00 in/hr0.0 mm/hr 0.00 in0.0 mm
04:15 PM 81.9°F27.7°C 69.9°F21.1°C 67% Calm Calm 8.3 mph13.4 kmh 30.29 in1025.7 mb 0.00 in0.0 mm 0.00 in/hr0.0 mm/hr 0.00 in0.0 mm
04:30 PM 82.0°F27.8°C 67.8°F19.9°C 62% Calm Calm 1.6 mph2.6 kmh 30.29 in1025.7 mb 0.00 in0.0 mm 0.00 in/hr0.0 mm/hr 0.00 in0.0 mm
04:45 PM 81.0°F27.2°C 66.8°F19.3°C 62% Calm Calm 1.6 mph2.6 kmh 30.28 in1025.4 mb 0.00 in0.0 mm 0.00 in/hr0.0 mm/hr 0.00 in0.0 mm
05:00 PM 80.4°F26.9°C 66.7°F19.3°C 63% Calm Calm 1.6 mph2.6 kmh 30.29 in1025.7 mb 0.00 in0.0 mm 0.00 in/hr0.0 mm/hr 0.00 in0.0 mm
05:15 PM 80.4°F26.9°C 67.2°F19.6°C 64% Calm Calm 1.6 mph2.6 kmh 30.28 in1025.4 mb 0.00 in0.0 mm 0.00 in/hr0.0 mm/hr 0.00 in0.0 mm
05:30 PM 79.7°F26.5°C 66.9°F19.4°C 65% Calm Calm 1.6 mph2.6 kmh 30.28 in1025.4 mb 0.00 in0.0 mm 0.00 in/hr0.0 mm/hr 0.00 in0.0 mm
05:45 PM 79.7°F26.5°C 66.5°F19.2°C 64% Calm Calm 6.9 mph11.1 kmh 30.28 in1025.4 mb 0.00 in0.0 mm 0.00 in/hr0.0 mm/hr 0.00 in0.0 mm
06:00 PM 79.3°F26.3°C 67.5°F19.7°C 67% Calm Calm 8.3 mph13.4 kmh 30.28 in1025.4 mb 0.00 in0.0 mm 0.00 in/hr0.0 mm/hr 0.00 in0.0 mm
06:15 PM 77.7°F25.4°C 67.6°F19.8°C 71% Calm Calm 0.7 mph1.1 kmh 30.28 in1025.4 mb 0.00 in0.0 mm 0.00 in/hr0.0 mm/hr 0.00 in0.0 mm
06:30 PM 77.2°F25.1°C 67.9°F19.9°C 73% Calm Calm 3.1 mph5.0 kmh 30.29 in1025.7 mb 0.00 in0.0 mm 0.00 in/hr0.0 mm/hr 0.00 in0.0 mm
06:45 PM 77.5°F25.3°C 67.4°F19.7°C 71% Calm Calm 2.2 mph3.5 kmh 30.28 in1025.4 mb 0.00 in0.0 mm 0.00 in/hr0.0 mm/hr 0.00 in0.0 mm
07:00 PM 76.8°F24.9°C 67.2°F19.6°C 72% Calm Calm 4.5 mph7.2 kmh 30.29 in1025.7 mb 0.00 in0.0 mm 0.00 in/hr0.0 mm/hr 0.00 in0.0 mm
07:15 PM 76.1°F24.5°C 66.5°F19.2°C 72% Calm Calm 0.7 mph1.1 kmh 30.30 in1026.1 mb 0.00 in0.0 mm 0.00 in/hr0.0 mm/hr 0.00 in0.0 mm
07:30 PM 75.4°F24.1°C 66.6°F19.2°C 74% Calm Calm -- 30.30 in1026.1 mb 0.00 in0.0 mm 0.00 in/hr0.0 mm/hr 0.00 in0.0 mm
07:45 PM 74.5°F23.6°C 66.1°F18.9°C 75% Calm Calm -- 30.30 in1026.1 mb 0.00 in0.0 mm 0.00 in/hr0.0 mm/hr 0.00 in0.0 mm
08:00 PM 73.2°F22.9°C 65.6°F18.7°C 77% Calm Calm -- 30.31 in1026.4 mb 0.00 in0.0 mm 0.00 in/hr0.0 mm/hr 0.00 in0.0 mm
08:15 PM 72.7°F22.6°C 65.8°F18.8°C 79% Calm Calm 5.4 mph8.7 kmh 30.32 in1026.8 mb 0.00 in0.0 mm 0.00 in/hr0.0 mm/hr 0.00 in0.0 mm
08:30 PM 72.5°F22.5°C 65.3°F18.5°C 78% 2.2 mph E3.5 kmh E 7.6 mph12.2 kmh 30.32 in1026.8 mb 0.00 in0.0 mm 0.00 in/hr0.0 mm/hr 0.00 in0.0 mm
08:45 PM 72.0°F22.2°C 64.4°F18.0°C 77% Calm Calm 7.6 mph12.2 kmh 30.33 in1027.1 mb 0.00 in0.0 mm 0.00 in/hr0.0 mm/hr 0.00 in0.0 mm
09:00 PM 71.2°F21.8°C 64.4°F18.0°C 79% Calm Calm 6.9 mph11.1 kmh 30.34 in1027.4 mb 0.00 in0.0 mm 0.00 in/hr0.0 mm/hr 0.00 in0.0 mm
09:15 PM 70.0°F21.1°C 64.3°F17.9°C 82% Calm Calm 5.4 mph8.7 kmh 30.34 in1027.4 mb 0.00 in0.0 mm 0.00 in/hr0.0 mm/hr 0.00 in0.0 mm
09:30 PM 70.0°F21.1°C 62.8°F17.1°C 78% Calm Calm 10.7 mph17.2 kmh 30.34 in1027.4 mb 0.00 in0.0 mm 0.00 in/hr0.0 mm/hr 0.00 in0.0 mm
09:45 PM 69.3°F20.7°C 62.1°F16.7°C 78% Calm Calm 5.4 mph8.7 kmh 30.35 in1027.8 mb 0.00 in0.0 mm 0.00 in/hr0.0 mm/hr 0.00 in0.0 mm
10:00 PM 68.5°F20.3°C 62.2°F16.8°C 80% Calm Calm 6.0 mph9.7 kmh 30.35 in1027.8 mb 0.00 in0.0 mm 0.00 in/hr0.0 mm/hr 0.00 in0.0 mm
10:15 PM 68.4°F20.2°C 62.7°F17.1°C 82% Calm Calm 15.9 mph25.6 kmh 30.35 in1027.8 mb 0.00 in0.0 mm 0.00 in/hr0.0 mm/hr 0.00 in0.0 mm
10:30 PM 68.2°F20.1°C 63.5°F17.5°C 85% Calm Calm 8.3 mph13.4 kmh 30.35 in1027.8 mb 0.00 in0.0 mm 0.00 in/hr0.0 mm/hr 0.00 in0.0 mm
10:45 PM 67.6°F19.8°C 63.7°F17.6°C 87% Calm Calm 4.5 mph7.2 kmh 30.35 in1027.8 mb 0.00 in0.0 mm 0.00 in/hr0.0 mm/hr 0.00 in0.0 mm
11:00 PM 66.9°F19.4°C 63.6°F17.6°C 89% Calm Calm 6.9 mph11.1 kmh 30.35 in1027.8 mb 0.00 in0.0 mm 0.00 in/hr0.0 mm/hr 0.00 in0.0 mm
11:15 PM 66.4°F19.1°C 63.7°F17.6°C 91% Calm Calm 7.6 mph12.2 kmh 30.35 in1027.8 mb 0.00 in0.0 mm 0.00 in/hr0.0 mm/hr 0.00 in0.0 mm
11:30 PM 66.2°F19.0°C 63.5°F17.5°C 91% Calm Calm 9.8 mph15.8 kmh 30.36 in1028.1 mb 0.00 in0.0 mm 0.00 in/hr0.0 mm/hr 0.00 in0.0 mm
11:45 PM 65.5°F18.6°C 63.4°F17.4°C 93% Calm Calm 6.0 mph9.7 kmh 30.36 in1028.1 mb 0.00 in0.0 mm 0.00 in/hr0.0 mm/hr 0.00 in0.0 mm